Hauptseite
METAR-TAF:

METAR-TAF

Flughäfen :

Flughafen Sønderborg

Sønderborg, Dänemark

Breite: 54-58N, Länge: 009-47E, Höhe: 7 m

Beobachtung

Neuester Wetterbericht von vor 33 Minuten, um 23:20 UTC
Wind 8 kt aus Südost
Temperatur -2°C
Luftfeuchtigkeit 80%
Luftdruck 1002 hPa
Sichtweite 10 km oder mehr

METAR: EKSB 222320Z AUTO 14008KT 9999NDV BKN200/// M02/M05 Q1002

Zeit: 00:53 (23:53 UTC)

Prognose

Neuester Wetterbericht von vor 5 Stunden und 55 Minuten, um 17:58 UTC
Gültige Prognose vom 22 um 18 UTC bis 22 um 23 UTC
Wind 12 kt aus Süd/Südost
Sichtweite: 8000 m
Aufgelockert bewölkt in der Höhe von 1000 ft

TAF: EKSB 221758Z 2218/2223 15012KT 8000 SCT010

Wetterbeobachtungen und Prognosen von mehr als 4000 Flughäfen (METAR und TAF Bericht).

Die verfügbaren Stationen werden durch gelbe und rote Markierungen auf der Karte dargestellt.

Führen Sie die Maus auf sie, um den Namen der Station zu sehen.

Darauf klicken, um die Beobachtung von Wetterbeobachtungen und Prognosen zu sehen.

Um die Karte zu ändern : klicken Sie auf den grünen Tasten mit einem schwarzen Kreuz Zum Vergrößern, auf den grünen Button mit einem Gedankenstrich zu verkleinern, oder auf die grünen Pfeile für benachbarte Karten.


METAR-TAF: